TimeCDT,TemperatureF,Dew PointF,Humidity,Sea Level PressureIn,VisibilityMPH,Wind Direction,Wind SpeedMPH,Gust SpeedMPH,PrecipitationIn,Events,Conditions,WindDirDegrees,DateUTC
12:15 AM,57.2,55.4,94,29.93,10.0,Calm,Calm,-,N/A,,Overcast,0,2012-10-03 05:15:00
12:35 AM,57.2,55.4,94,29.94,10.0,Calm,Calm,-,N/A,,Overcast,0,2012-10-03 05:35:00
12:55 AM,57.2,55.4,94,29.94,7.0,Calm,Calm,-,N/A,,Overcast,0,2012-10-03 05:55:00
1:15 AM,57.2,55.4,94,29.95,7.0,South,3.5,-,N/A,,Overcast,190,2012-10-03 06:15:00
1:35 AM,57.2,55.4,94,29.95,10.0,Calm,Calm,-,N/A,,Overcast,0,2012-10-03 06:35:00
1:55 AM,57.2,55.4,94,29.96,10.0,Calm,Calm,-,N/A,,Overcast,0,2012-10-03 06:55:00
2:15 AM,57.2,55.4,94,29.96,10.0,Calm,Calm,-,N/A,,Overcast,0,2012-10-03 07:15:00
2:35 AM,57.2,55.4,94,29.96,10.0,SSW,4.6,-,N/A,,Overcast,200,2012-10-03 07:35:00
2:55 AM,57.2,55.4,94,29.96,10.0,SSW,5.8,-,N/A,,Overcast,200,2012-10-03 07:55:00
3:15 AM,57.2,55.4,94,29.97,10.0,SSW,4.6,-,N/A,,Overcast,200,2012-10-03 08:15:00
3:35 AM,57.2,55.4,94,29.97,10.0,SSW,4.6,-,N/A,,Overcast,200,2012-10-03 08:35:00
3:55 AM,57.2,55.4,94,29.97,10.0,SSW,5.8,-,N/A,,Overcast,200,2012-10-03 08:55:00
4:15 AM,59.0,53.6,82,29.98,10.0,SSW,5.8,-,N/A,,Overcast,210,2012-10-03 09:15:00
4:35 AM,57.2,53.6,88,29.98,10.0,South,5.8,-,N/A,,Overcast,190,2012-10-03 09:35:00
4:55 AM,55.4,53.6,94,29.99,10.0,South,3.5,-,N/A,,Scattered Clouds,190,2012-10-03 09:55:00
5:15 AM,53.6,53.6,100,30.00,10.0,South,5.8,-,N/A,,Scattered Clouds,170,2012-10-03 10:15:00
5:35 AM,55.4,53.6,94,30.00,10.0,South,5.8,-,N/A,,Overcast,170,2012-10-03 10:35:00
5:55 AM,55.4,53.6,94,30.00,10.0,South,6.9,-,N/A,,Scattered Clouds,170,2012-10-03 10:55:00
6:15 AM,53.6,51.8,94,30.01,10.0,South,5.8,-,N/A,,Clear,180,2012-10-03 11:15:00
6:35 AM,53.6,51.8,94,30.02,10.0,South,5.8,-,N/A,,Clear,170,2012-10-03 11:35:00
6:55 AM,55.4,53.6,94,30.02,20.0,South,5.8,-,N/A,,Mostly Cloudy,170,2012-10-03 11:55:00
7:55 AM,57.2,53.6,88,30.03,20.0,South,5.8,-,N/A,,Mostly Cloudy,180,2012-10-03 12:55:00
8:55 AM,60.8,53.6,77,30.04,20.0,South,5.8,-,N/A,,Scattered Clouds,190,2012-10-03 13:55:00
9:55 AM,66.2,55.4,68,30.05,20.0,South,5.8,-,N/A,,Clear,180,2012-10-03 14:55:00
12:50 PM,75.2,55.4,50,30.03,20.0,South,11.5,-,N/A,,Partly Cloudy,180,2012-10-03 17:50:00
1:50 PM,75.2,53.6,47,30.01,20.0,South,13.8,-,N/A,,Scattered Clouds,190,2012-10-03 18:50:00
2:50 PM,77.0,53.6,44,30.01,20.0,South,13.8,-,N/A,,Scattered Clouds,180,2012-10-03 19:50:00
3:50 PM,75.2,53.6,47,30.01,20.0,SSW,11.5,-,N/A,,Scattered Clouds,200,2012-10-03 20:50:00
4:50 PM,75.2,53.6,47,30.01,20.0,South,11.5,-,N/A,,Scattered Clouds,190,2012-10-03 21:50:00
5:50 PM,73.4,55.4,53,30.02,20.0,South,6.9,-,N/A,,Scattered Clouds,180,2012-10-03 22:50:00
6:35 PM,68.0,53.6,60,30.06,10.0,WNW,6.9,-,N/A,Thunderstorm,Scattered Clouds,290,2012-10-03 23:35:00
6:55 PM,68.0,51.8,56,30.06,10.0,South,4.6,-,N/A,Thunderstorm,Overcast,190,2012-10-03 23:55:00
7:15 PM,64.4,55.4,73,30.07,7.0,SSW,6.9,-,0.04,Rain,Light Rain,210,2012-10-04 00:15:00
7:35 PM,62.6,55.4,77,30.06,5.0,South,4.6,-,N/A,Rain,Heavy Rain,170,2012-10-04 00:35:00
7:55 PM,60.8,55.4,82,30.07,7.0,SSE,8.1,-,0.15,Rain,Rain,150,2012-10-04 00:55:00
8:15 PM,60.8,55.4,82,30.07,10.0,SSE,4.6,-,N/A,Rain,Light Rain,160,2012-10-04 01:15:00
8:35 PM,60.8,55.4,82,30.08,10.0,Calm,Calm,-,0.02,Rain,Light Rain,0,2012-10-04 01:35:00
8:55 PM,60.8,57.2,88,30.08,10.0,SE,4.6,-,0.02,,Scattered Clouds,140,2012-10-04 01:55:00
9:15 PM,60.8,59.0,94,30.08,10.0,SSE,4.6,-,N/A,,Clear,150,2012-10-04 02:15:00
9:55 PM,60.8,59.0,94,30.10,10.0,SE,5.8,-,N/A,,Mostly Cloudy,140,2012-10-04 02:55:00
10:15 PM,62.6,59.0,88,30.10,10.0,SSE,3.5,-,N/A,,Overcast,160,2012-10-04 03:15:00
10:35 PM,60.8,59.0,94,30.11,10.0,Calm,Calm,-,N/A,,Overcast,0,2012-10-04 03:35:00
10:55 PM,60.8,59.0,94,30.11,10.0,SSE,4.6,-,N/A,,Mostly Cloudy,160,2012-10-04 03:55:00
11:15 PM,60.8,59.0,94,30.12,10.0,Calm,Calm,-,N/A,,Mostly Cloudy,0,2012-10-04 04:15:00
11:35 PM,60.8,59.0,94,30.12,10.0,SSE,3.5,-,N/A,,Overcast,160,2012-10-04 04:35:00
11:55 PM,60.8,59.0,94,30.12,10.0,Calm,Calm,-,N/A,,Scattered Clouds,0,2012-10-04 04:55:00